Time;durP1;ratioP1;P1;durP2;ratioP2;P2;SDS_P1;SDS_P2;PMS_P1;PMS_P2;Temp;Humidity;BMP_temperature;BMP_pressure;BME280_temperature;BME280_humidity;BME280_pressure;Samples;Min_cycle;Max_cycle;Signal;HPM_P1;HPM_P2
2021/01/14 00:00:01;;;;;;;13.77;5.13;;;;;;;0.89;59.36;94095.38;5134566;27;20260;-76
2021/01/14 00:02:27;;;;;;;8.57;5.33;;;;;;;1.06;59.47;94097.28;5134271;27;20255;-74
2021/01/14 00:04:52;;;;;;;8.57;5.33;;;;;;;1.11;58.81;94099.78;5134500;27;20200;-74
2021/01/14 00:07:19;;;;;;;8.10;5.83;;;;;;;1.02;58.05;94089.25;5134325;27;20169;-76
2021/01/14 00:09:44;;;;;;;11.60;5.40;;;;;;;1.05;58.92;94088.63;5150385;27;20645;-75
2021/01/14 00:12:10;;;;;;;10.43;6.00;;;;;;;1.03;59.59;94084.75;5150226;27;20180;-75
2021/01/14 00:14:36;;;;;;;9.90;5.03;;;;;;;1.16;59.19;94088.34;5134179;27;20165;-74
2021/01/14 00:17:01;;;;;;;10.53;6.17;;;;;;;1.24;59.23;94087.63;5134270;27;20172;-74
2021/01/14 00:19:27;;;;;;;11.57;5.67;;;;;;;1.33;58.68;94096.28;5149951;27;20177;-76
2021/01/14 00:21:52;;;;;;;11.17;5.53;;;;;;;1.40;58.64;94109.00;5134015;27;20197;-74
2021/01/14 00:24:18;;;;;;;10.53;5.30;;;;;;;1.30;57.73;94095.06;5131003;27;20534;-75
2021/01/14 00:26:45;;;;;;;8.73;5.20;;;;;;;1.14;57.22;94099.19;5134198;27;20176;-74
2021/01/14 00:29:11;;;;;;;9.93;6.07;;;;;;;1.32;58.38;94100.78;5134036;27;20510;-73
2021/01/14 00:31:36;;;;;;;10.97;5.43;;;;;;;1.24;58.48;94095.50;5132693;27;20184;-75
2021/01/14 00:34:02;;;;;;;7.73;4.90;;;;;;;1.34;58.16;94089.94;5133716;27;20204;-74
2021/01/14 00:39:30;;;;;;;13.18;4.95;;;;;;;1.32;57.58;94100.78;5133343;27;20225;-77
2021/01/14 00:41:55;;;;;;;9.67;4.63;;;;;;;1.14;57.34;94096.56;5133833;27;20169;-75
2021/01/14 00:44:21;;;;;;;10.93;5.40;;;;;;;1.16;57.72;94106.75;5133517;27;20169;-77
2021/01/14 00:46:47;;;;;;;9.53;5.10;;;;;;;1.26;57.70;94086.22;5133764;27;20168;-74
2021/01/14 00:49:12;;;;;;;8.20;4.80;;;;;;;1.15;56.73;94098.09;5132095;27;20201;-75
2021/01/14 00:51:38;;;;;;;8.23;4.67;;;;;;;1.19;56.72;94104.31;5133596;27;20655;-75
2021/01/14 00:54:05;;;;;;;7.75;4.28;;;;;;;1.21;57.07;94096.88;5133162;27;20264;-75
2021/01/14 00:56:34;;;;;;;9.25;5.00;;;;;;;1.27;57.16;94100.16;5133414;27;20180;-77
2021/01/14 00:58:59;;;;;;;8.88;4.80;;;;;;;1.13;56.96;94102.13;5131783;27;20245;-74
2021/01/14 01:01:26;;;;;;;6.93;4.27;;;;;;;1.12;55.92;94092.66;5133182;27;20678;-75
2021/01/14 01:03:52;;;;;;;9.82;5.28;;;;;;;1.13;56.91;94094.25;5149328;27;20165;-75
2021/01/14 01:06:19;;;;;;;6.20;4.40;;;;;;;1.32;56.66;94095.53;5131666;27;20180;-74
2021/01/14 01:08:45;;;;;;;10.98;4.63;;;;;;;1.24;57.28;94092.88;5133262;27;20173;-77
2021/01/14 01:11:11;;;;;;;6.90;4.50;;;;;;;1.27;56.82;94093.03;5149048;27;20177;-75
2021/01/14 01:13:36;;;;;;;9.60;4.70;;;;;;;1.29;57.80;94093.53;5132080;27;20161;-75
2021/01/14 01:16:02;;;;;;;7.73;4.33;;;;;;;1.30;56.39;94089.81;5131568;27;20165;-74
2021/01/14 01:18:27;;;;;;;6.27;4.43;;;;;;;1.13;57.35;94084.50;5133232;27;20157;-76
2021/01/14 01:20:53;;;;;;;8.43;3.93;;;;;;;1.12;56.50;94088.19;5132706;27;20196;-76
2021/01/14 01:23:18;;;;;;;6.73;3.93;;;;;;;1.05;55.51;94086.00;5133109;27;20165;-74
2021/01/14 01:25:44;;;;;;;6.00;4.27;;;;;;;1.20;56.36;94084.81;5132805;27;20169;-74
2021/01/14 01:28:09;;;;;;;9.67;3.80;;;;;;;1.23;55.63;94078.16;5132693;27;20668;-77
2021/01/14 01:30:35;;;;;;;6.97;4.13;;;;;;;1.37;55.22;94072.81;5132952;27;20165;-76
2021/01/14 01:33:00;;;;;;;7.13;3.97;;;;;;;1.36;55.66;94077.28;5132597;27;20168;-75
2021/01/14 01:35:26;;;;;;;6.67;3.90;;;;;;;1.28;55.89;94064.88;5133052;27;20208;-75
2021/01/14 01:37:51;;;;;;;9.43;4.20;;;;;;;1.25;55.81;94073.41;5132492;27;20751;-76
2021/01/14 01:40:17;;;;;;;6.72;4.07;;;;;;;1.27;56.63;94071.22;5148217;27;20674;-74
2021/01/14 01:42:43;;;;;;;10.47;4.03;;;;;;;1.27;56.84;94061.47;5132498;27;20245;-75
2021/01/14 01:45:09;;;;;;;9.20;4.27;;;;;;;1.31;56.72;94070.31;5132700;27;20184;-77
2021/01/14 01:47:36;;;;;;;8.23;4.35;;;;;;;1.23;56.95;94071.03;5132591;27;20177;-74
2021/01/14 01:50:05;;;;;;;6.80;4.03;;;;;;;1.27;56.79;94076.47;5132319;27;20185;-75
2021/01/14 01:52:33;;;;;;;8.35;4.05;;;;;;;1.39;55.83;94070.63;5132438;27;20613;-75
2021/01/14 01:54:59;;;;;;;8.55;4.13;;;;;;;1.05;56.23;94059.72;5132143;27;20586;-75
2021/01/14 01:57:25;;;;;;;6.20;4.15;;;;;;;1.17;56.88;94053.09;5132557;27;20169;-73
2021/01/14 01:59:50;;;;;;;8.73;4.40;;;;;;;1.11;56.13;94052.47;5147875;27;20553;-74
2021/01/14 02:02:24;;;;;;;9.03;4.00;;;;;;;1.10;56.57;94055.41;5131283;27;20169;-74
2021/01/14 02:04:50;;;;;;;7.50;4.07;;;;;;;0.89;55.26;94055.94;5131424;27;20165;-75
2021/01/14 02:07:36;;;;;;;9.80;4.70;;;;;;;1.02;55.90;94052.44;5132567;28;20191;-75
2021/01/14 02:10:05;;;;;;;7.97;4.40;;;;;;;0.99;56.82;94050.41;5147059;27;20179;-74
2021/01/14 02:12:32;;;;;;;9.10;4.57;;;;;;;1.03;56.86;94055.84;5130988;28;20187;-75
2021/01/14 02:14:58;;;;;;;13.45;4.70;;;;;;;0.93;57.05;94048.22;5147960;27;20158;-75
2021/01/14 02:17:27;;;;;;;8.67;4.40;;;;;;;0.79;56.64;94048.34;5132329;28;20218;-75
2021/01/14 02:19:53;;;;;;;8.73;4.13;;;;;;;0.49;57.43;94023.63;5132085;28;20183;-76
2021/01/14 02:22:24;;;;;;;7.53;4.43;;;;;;;0.78;57.00;94049.41;5148137;27;20165;-77
2021/01/14 02:24:51;;;;;;;7.93;4.55;;;;;;;0.81;57.54;94038.28;5131001;28;20649;-75
2021/01/14 02:27:16;;;;;;;8.40;3.78;;;;;;;0.56;56.89;94028.44;5148005;27;20239;-77
2021/01/14 02:29:42;;;;;;;5.73;3.37;;;;;;;0.83;57.08;94045.88;5130825;28;20188;-75
2021/01/14 02:32:16;;;;;;;5.90;4.20;;;;;;;0.62;56.58;94033.28;5130948;28;20217;-77
2021/01/14 02:34:42;;;;;;;6.78;4.20;;;;;;;0.79;56.61;94040.47;5130754;28;20177;-75
2021/01/14 02:37:08;;;;;;;6.83;3.90;;;;;;;0.71;55.88;94030.69;5130679;28;20256;-75
2021/01/14 02:39:36;;;;;;;12.00;4.17;;;;;;;0.45;57.25;94033.97;5131756;28;20649;-74
2021/01/14 02:42:01;;;;;;;8.25;4.22;;;;;;;0.53;56.56;94029.84;5132169;28;20211;-76
2021/01/14 02:44:27;;;;;;;5.37;3.37;;;;;;;0.73;57.03;94034.56;5147956;27;20200;-76
2021/01/14 02:46:52;;;;;;;6.63;3.63;;;;;;;0.93;55.80;94025.34;5131963;28;20176;-77
2021/01/14 02:49:18;;;;;;;4.23;3.53;;;;;;;0.86;56.08;94029.50;5132112;28;20168;-78
2021/01/14 02:51:48;;;;;;;9.90;4.40;;;;;;;0.78;55.48;94036.25;5147638;27;20560;-78
2021/01/14 02:54:14;;;;;;;4.93;3.60;;;;;;;0.98;55.55;94046.25;5148075;27;20165;-77
2021/01/14 02:56:40;;;;;;;5.53;3.92;;;;;;;0.82;55.75;94046.94;5130106;28;20657;-76
2021/01/14 02:59:06;;;;;;;5.20;4.70;;;;;;;0.86;55.80;94053.94;5132047;28;20244;-76
2021/01/14 03:01:32;;;;;;;6.23;3.90;;;;;;;0.96;56.08;94039.75;5131613;28;20293;-75
2021/01/14 03:03:57;;;;;;;5.53;3.78;;;;;;;0.91;54.90;94043.28;5131961;28;20174;-77
2021/01/14 03:06:23;;;;;;;5.13;3.20;;;;;;;0.82;55.55;94060.09;5130284;28;20177;-77
2021/01/14 03:08:48;;;;;;;7.80;4.10;;;;;;;0.90;56.59;94049.63;5131968;28;20168;-77
2021/01/14 03:11:14;;;;;;;9.40;4.00;;;;;;;0.98;55.98;94048.88;5129826;28;20228;-77
2021/01/14 03:13:40;;;;;;;5.63;3.80;;;;;;;0.64;56.31;94041.63;5147169;27;20177;-74
2021/01/14 03:16:08;;;;;;;9.97;4.93;;;;;;;0.68;57.16;94037.31;5132241;27;20173;-74
2021/01/14 03:18:34;;;;;;;6.03;4.10;;;;;;;0.51;57.14;94032.00;5135258;27;20165;-77
2021/01/14 03:20:59;;;;;;;5.83;3.83;;;;;;;0.77;56.80;94034.72;5133379;27;20208;-77
2021/01/14 03:23:25;;;;;;;7.80;4.40;;;;;;;0.68;56.90;94034.69;5135392;27;20645;-75
2021/01/14 03:25:51;;;;;;;5.20;4.07;;;;;;;0.64;56.34;94031.13;5134436;27;20665;-75
2021/01/14 03:28:16;;;;;;;8.97;4.13;;;;;;;0.66;56.54;94034.22;5134967;27;20661;-74
2021/01/14 03:30:42;;;;;;;7.10;3.90;;;;;;;0.77;56.55;94021.59;5135281;27;20181;-75
2021/01/14 03:33:07;;;;;;;6.80;3.80;;;;;;;0.76;57.18;94026.06;5150924;27;20249;-75
2021/01/14 03:35:33;;;;;;;7.70;3.90;;;;;;;0.84;56.00;94021.91;5133952;27;20653;-76
2021/01/14 03:37:58;;;;;;;8.07;4.13;;;;;;;0.74;55.63;94007.22;5134873;27;20212;-75
2021/01/14 03:40:24;;;;;;;8.07;3.63;;;;;;;0.75;55.87;94013.22;5134727;27;20189;-78
2021/01/14 03:42:49;;;;;;;5.63;3.97;;;;;;;0.71;55.60;94004.41;5135126;27;20177;-78
2021/01/14 03:45:15;;;;;;;6.33;3.67;;;;;;;0.49;56.65;93995.50;5134822;27;20256;-77
2021/01/14 03:47:41;;;;;;;8.23;3.80;;;;;;;0.61;55.71;94005.44;5133549;27;20165;-77
2021/01/14 03:50:07;;;;;;;5.07;3.63;;;;;;;0.64;55.69;93999.59;5134496;27;20173;-76
2021/01/14 03:52:33;;;;;;;4.35;3.65;;;;;;;0.56;55.58;93992.44;5134682;27;20170;-76
2021/01/14 03:54:59;;;;;;;8.45;4.30;;;;;;;0.16;56.31;93971.41;5133335;27;20180;-77
2021/01/14 03:57:24;;;;;;;7.57;4.07;;;;;;;0.38;56.79;93990.81;5150808;27;20165;-75
2021/01/14 03:59:50;;;;;;;4.60;3.47;;;;;;;0.33;55.91;93977.81;5134604;27;20223;-76
2021/01/14 04:02:15;;;;;;;6.70;4.07;;;;;;;0.48;56.30;93986.09;5150807;27;20165;-76
2021/01/14 04:04:41;;;;;;;10.00;3.87;;;;;;;0.43;56.87;93975.72;5134592;27;20538;-77
2021/01/14 04:07:11;;;;;;;9.32;4.45;;;;;;;0.59;55.09;93972.69;5134474;27;20165;-76
2021/01/14 04:09:36;;;;;;;7.32;3.80;;;;;;;0.57;55.82;93973.00;5134462;27;20165;-75
2021/01/14 04:12:02;;;;;;;6.97;4.03;;;;;;;0.56;55.24;93971.41;5134227;27;20669;-78
2021/01/14 04:14:28;;;;;;;5.27;3.57;;;;;;;0.32;54.49;93976.28;5133455;27;20172;-76
2021/01/14 04:16:54;;;;;;;4.33;3.50;;;;;;;0.49;54.24;93965.84;5134238;27;20427;-76
2021/01/14 04:19:19;;;;;;;6.37;3.40;;;;;;;0.49;53.28;93960.59;5132684;27;20181;-78
2021/01/14 04:21:45;;;;;;;7.10;3.60;;;;;;;0.42;53.39;93963.66;5134280;27;20245;-77
2021/01/14 04:24:11;;;;;;;13.40;3.50;;;;;;;0.58;52.16;93971.91;5132606;27;20201;-78
2021/01/14 04:26:36;;;;;;;2.57;2.20;;;;;;;0.29;51.41;93953.25;5133945;27;20621;-77
2021/01/14 04:29:02;;;;;;;3.27;2.40;;;;;;;0.58;50.74;93965.88;5149779;27;20649;-78
2021/01/14 04:31:28;;;;;;;3.78;2.63;;;;;;;0.52;51.32;93955.50;5149630;27;20563;-76
2021/01/14 04:33:53;;;;;;;3.70;2.57;;;;;;;0.59;49.95;93952.44;5133633;27;20177;-76
2021/01/14 04:36:19;;;;;;;3.33;2.50;;;;;;;0.35;50.66;93936.28;5133778;27;20355;-75
2021/01/14 04:38:45;;;;;;;3.73;2.13;;;;;;;0.39;49.23;93950.34;5149896;27;20554;-76
2021/01/14 04:41:10;;;;;;;7.17;2.47;;;;;;;0.40;48.79;93951.91;5132696;27;20204;-77
2021/01/14 04:43:36;;;;;;;3.17;2.77;;;;;;;0.62;48.45;93949.22;5133666;27;20230;-77
2021/01/14 04:46:11;;;;;;;2.50;2.30;;;;;;;0.67;49.93;93946.41;5131855;27;20184;-76
2021/01/14 04:48:41;;;;;;;3.13;2.25;;;;;;;0.57;49.16;93946.72;5133745;27;20193;-77
2021/01/14 04:51:08;;;;;;;3.10;2.20;;;;;;;0.45;48.67;93946.50;5133788;27;20256;-77
2021/01/14 04:53:37;;;;;;;4.05;3.00;;;;;;;0.32;48.76;93947.41;5133196;27;20173;-77
2021/01/14 04:56:04;;;;;;;3.42;2.53;;;;;;;0.32;49.79;93950.03;5133697;27;20161;-78
2021/01/14 04:58:29;;;;;;;3.45;2.65;;;;;;;0.25;49.20;93951.22;5133290;27;20225;-78
2021/01/14 05:00:57;;;;;;;6.50;2.23;;;;;;;0.02;49.62;93938.47;5133496;27;20209;-77
2021/01/14 05:03:24;;;;;;;3.42;2.80;;;;;;;0.20;49.03;93937.47;5133434;27;20605;-78
2021/01/14 05:05:49;;;;;;;3.58;2.55;;;;;;;0.21;49.88;93934.53;5133284;27;20230;-78
2021/01/14 05:08:16;;;;;;;2.80;2.33;;;;;;;0.51;50.00;93940.84;5133359;27;20177;-78
2021/01/14 05:10:42;;;;;;;3.03;2.25;;;;;;;0.65;49.30;93929.44;5133030;27;20720;-78
2021/01/14 05:13:09;;;;;;;3.40;2.25;;;;;;;0.62;49.24;93925.56;5133022;27;20692;-77
2021/01/14 05:15:34;;;;;;;4.57;2.63;;;;;;;0.36;49.21;93914.22;5132957;27;20177;-77
2021/01/14 05:18:00;;;;;;;3.33;2.43;;;;;;;0.31;48.58;93909.09;5133115;27;20687;-78
2021/01/14 05:20:26;;;;;;;4.17;2.83;;;;;;;0.32;48.99;93921.13;5131844;27;20200;-78
2021/01/14 05:22:57;;;;;;;2.53;2.17;;;;;;;0.18;49.61;93921.25;5133193;27;20173;-78
2021/01/14 05:25:22;;;;;;;4.22;3.28;;;;;;;0.15;48.33;93919.97;5148711;27;20178;-78
2021/01/14 05:27:48;;;;;;;3.90;2.43;;;;;;;0.48;48.58;93914.41;5132856;27;20715;-78
2021/01/14 05:30:14;;;;;;;4.27;2.87;;;;;;;0.01;48.28;93908.81;5132361;27;20196;-76
2021/01/14 05:32:40;;;;;;;5.63;2.60;;;;;;;-0.05;47.92;93900.31;5131373;27;20196;-78
2021/01/14 05:35:08;;;;;;;3.17;2.60;;;;;;;0.02;47.66;93896.47;5132280;27;20415;-77
2021/01/14 05:37:41;;;;;;;4.53;3.10;;;;;;;-0.08;48.05;93884.38;5131232;27;20637;-78
2021/01/14 05:40:08;;;;;;;3.15;2.50;;;;;;;-0.05;47.98;93886.41;5132806;27;20205;-78
2021/01/14 05:42:34;;;;;;;6.07;3.22;;;;;;;0.43;47.41;93898.78;5131107;27;20252;-76
2021/01/14 05:44:59;;;;;;;3.37;2.60;;;;;;;0.11;46.61;93887.53;5132803;27;20265;-78
2021/01/14 05:47:28;;;;;;;4.83;3.30;;;;;;;-0.03;47.52;93890.28;5132769;27;20255;-78
2021/01/14 05:50:00;;;;;;;3.75;3.00;;;;;;;0.06;46.49;93892.94;5131646;27;20512;-78
2021/01/14 05:52:27;;;;;;;6.22;2.70;;;;;;;0.26;46.51;93896.88;5132167;27;20252;-78
2021/01/14 05:55:12;;;;;;;5.00;2.47;;;;;;;0.14;46.47;93897.44;5126746;27;20222;-77
2021/01/14 05:57:39;;;;;;;5.15;2.67;;;;;;;0.39;46.65;93895.19;5117126;27;20267;-77
2021/01/14 06:00:08;;;;;;;2.67;2.45;;;;;;;0.66;46.52;93896.81;5132461;27;20193;-77
2021/01/14 06:02:34;;;;;;;6.97;2.78;;;;;;;0.43;45.45;93872.50;5132033;27;20252;-77
2021/01/14 06:04:59;;;;;;;7.70;2.63;;;;;;;0.58;45.55;93889.72;5127391;27;20259;-77
2021/01/14 06:07:37;;;;;;;4.17;2.67;;;;;;;0.35;46.21;93886.41;5132471;27;20252;-77
2021/01/14 06:10:03;;;;;;;3.00;2.78;;;;;;;0.37;45.77;93902.63;5132449;28;20213;-77
2021/01/14 06:12:28;;;;;;;2.93;2.47;;;;;;;0.34;45.36;93903.22;5132382;28;20191;-77
2021/01/14 06:14:54;;;;;;;4.37;2.47;;;;;;;0.65;45.35;93906.56;5131163;28;20188;-77
2021/01/14 06:17:19;;;;;;;3.87;2.80;;;;;;;0.55;45.70;93917.34;5132200;28;20290;-77
2021/01/14 06:19:45;;;;;;;3.37;3.07;;;;;;;0.65;46.34;93913.66;5132331;28;20251;-77
2021/01/14 06:22:14;;;;;;;5.23;2.90;;;;;;;0.80;46.62;93926.38;5132003;28;20200;-78
2021/01/14 06:24:40;;;;;;;2.95;2.60;;;;;;;0.93;46.54;93937.84;5132473;28;20172;-78
2021/01/14 06:27:05;;;;;;;12.60;3.10;;;;;;;0.91;47.09;93932.13;5130987;28;20176;-77
2021/01/14 06:29:41;;;;;;;4.07;3.67;;;;;;;0.85;45.84;93920.22;5132324;28;20173;-78
2021/01/14 06:32:07;;;;;;;7.95;3.10;;;;;;;0.95;46.50;93930.41;5147679;27;20173;-77
2021/01/14 06:34:33;;;;;;;6.00;3.67;;;;;;;1.08;45.67;93923.47;5132181;28;20188;-77
2021/01/14 06:37:06;;;;;;;3.60;3.30;;;;;;;0.93;46.54;93922.06;5130728;28;20212;-78
2021/01/14 06:39:36;;;;;;;6.82;3.85;;;;;;;0.96;47.66;93924.88;5130617;28;20226;-77
2021/01/14 06:42:04;;;;;;;7.97;3.90;;;;;;;0.96;48.25;93937.25;5131975;28;20269;-77
2021/01/14 06:44:29;;;;;;;13.43;7.45;;;;;;;1.07;51.05;93930.59;5130696;28;20226;-78
2021/01/14 06:46:55;;;;;;;20.53;9.63;;;;;;;1.04;53.30;93928.56;5147923;27;20177;-77
2021/01/14 06:49:20;;;;;;;24.50;11.27;;;;;;;1.01;54.50;93924.72;5130520;28;20177;-76
2021/01/14 06:51:53;;;;;;;24.27;11.50;;;;;;;0.91;55.19;93926.88;5116040;27;20568;-77
2021/01/14 06:54:20;;;;;;;28.50;12.90;;;;;;;0.89;55.70;93927.16;5133810;27;20551;-77
2021/01/14 06:56:58;;;;;;;28.02;13.20;;;;;;;0.49;57.54;93929.06;5136026;27;20251;-77
2021/01/14 06:59:25;;;;;;;29.15;13.27;;;;;;;0.53;56.80;93917.66;5135635;27;20172;-77
2021/01/14 07:02:34;;;;;;;22.90;12.10;;;;;;;0.56;56.87;93918.13;5135843;27;20213;-77
2021/01/14 07:05:11;;;;;;;28.85;12.35;;;;;;;0.51;56.56;93921.69;5135562;27;20169;-77
2021/01/14 07:07:46;;;;;;;28.55;12.00;;;;;;;0.26;57.92;93918.63;5118385;27;20653;-77
2021/01/14 07:10:14;;;;;;;26.23;12.68;;;;;;;0.22;58.52;93932.66;5116270;27;20195;-77
2021/01/14 07:12:40;;;;;;;33.97;11.85;;;;;;;0.38;57.32;93922.53;5135275;27;20664;-77
2021/01/14 07:15:06;;;;;;;22.92;12.15;;;;;;;0.16;58.12;93932.03;5134198;27;20165;-77
2021/01/14 07:17:33;;;;;;;23.17;12.63;;;;;;;0.44;58.05;93929.22;5135374;27;20196;-77
2021/01/14 07:19:59;;;;;;;29.50;11.52;;;;;;;0.58;57.20;93922.00;5133753;27;20342;-77
2021/01/14 07:22:24;;;;;;;24.33;12.35;;;;;;;0.14;59.08;93926.31;5135223;27;20267;-77
2021/01/14 07:24:50;;;;;;;26.30;12.30;;;;;;;0.51;57.48;93922.44;5116915;27;20234;-77
2021/01/14 07:27:15;;;;;;;26.57;12.47;;;;;;;0.51;57.91;93922.44;5116968;27;20169;-77
2021/01/14 07:29:44;;;;;;;20.60;10.40;;;;;;;0.59;57.89;93910.41;5133166;27;20204;-77
2021/01/14 07:32:10;;;;;;;19.80;10.18;;;;;;;0.22;58.53;93904.56;5135258;27;20165;-77
2021/01/14 07:34:45;;;;;;;14.37;8.40;;;;;;;0.44;55.88;93906.34;5134963;27;20180;-76
2021/01/14 07:37:14;;;;;;;14.35;6.40;;;;;;;0.66;53.20;93900.22;5133914;27;20254;-77
2021/01/14 07:39:54;;;;;;;6.75;3.58;;;;;;;0.83;50.90;93891.59;5133906;27;20552;-76
2021/01/14 07:42:21;;;;;;;4.60;3.17;;;;;;;0.93;49.92;93885.25;5135120;27;20183;-76
2021/01/14 07:44:57;;;;;;;5.75;3.00;;;;;;;0.96;49.01;93863.63;5134855;27;20169;-77
2021/01/14 07:47:33;;;;;;;2.47;2.28;;;;;;;1.13;47.71;93884.66;5150596;27;20188;-77
2021/01/14 07:50:00;;;;;;;4.03;2.35;;;;;;;1.05;45.62;93867.78;5134774;27;20183;-77
2021/01/14 07:52:35;;;;;;;3.15;1.70;;;;;;;1.17;44.37;93887.44;5135357;27;20229;-76
2021/01/14 07:55:05;;;;;;;19.15;8.65;;;;;;;1.01;50.84;93889.75;5134882;27;20249;-76
2021/01/14 07:57:35;;;;;;;26.35;12.57;;;;;;;0.93;55.25;93875.53;5134543;27;20175;-74
2021/01/14 08:00:08;;;;;;;23.58;10.10;;;;;;;1.18;52.75;93887.16;5133567;27;20181;-74
2021/01/14 08:03:08;;;;;;;18.40;10.05;;;;;;;1.28;51.62;93867.63;5131462;27;20245;-74
2021/01/14 08:05:40;;;;;;;18.48;9.02;;;;;;;1.42;50.40;93857.72;5134493;27;20188;-78
2021/01/14 08:08:30;;;;;;;19.45;8.10;;;;;;;1.53;49.58;93874.72;5134295;27;20176;-75
2021/01/14 08:11:19;;;;;;;14.57;8.45;;;;;;;1.46;51.10;93879.69;5134134;27;20210;-76
2021/01/14 08:14:10;;;;;;;22.20;11.07;;;;;;;1.63;51.55;93878.91;5134474;27;20181;-75
2021/01/14 08:16:42;;;;;;;26.08;12.70;;;;;;;1.74;52.04;93882.75;5132872;27;20645;-76
2021/01/14 08:19:33;;;;;;;35.60;14.55;;;;;;;1.71;53.44;93891.25;5134180;27;20177;-74
2021/01/14 08:21:58;;;;;;;33.83;14.18;;;;;;;1.90;52.64;93875.09;5134139;27;20200;-75
2021/01/14 08:24:52;;;;;;;28.80;13.90;;;;;;;1.99;52.39;93854.78;5134076;27;20667;-76
2021/01/14 08:27:21;;;;;;;33.65;14.45;;;;;;;1.85;52.83;93835.78;5133984;27;20177;-74
2021/01/14 08:29:59;;;;;;;34.53;16.17;;;;;;;1.82;53.06;93866.16;5133908;27;20177;-74
2021/01/14 08:32:34;;;;;;;31.55;14.20;;;;;;;1.57;53.89;93865.13;5134084;27;20233;-74
2021/01/14 08:35:15;;;;;;;31.85;15.95;;;;;;;1.71;54.55;93840.47;5128644;27;20195;-75
2021/01/14 08:37:43;;;;;;;32.40;14.48;;;;;;;2.00;52.34;93829.22;5127240;27;20213;-75
2021/01/14 08:40:29;;;;;;;23.00;12.88;;;;;;;1.88;52.54;93811.47;5133835;27;20215;-76
2021/01/14 08:43:16;;;;;;;27.52;13.23;;;;;;;1.86;52.83;93805.75;5132435;27;20253;-76
2021/01/14 08:45:52;;;;;;;22.65;12.60;;;;;;;1.98;51.81;93791.94;5126400;27;20171;-76
2021/01/14 08:48:23;;;;;;;34.80;12.82;;;;;;;1.91;51.90;93786.34;5132176;27;20225;-76
2021/01/14 08:50:49;;;;;;;20.75;10.75;;;;;;;1.84;52.05;93790.25;5133581;27;20177;-76
2021/01/14 08:53:18;;;;;;;17.02;9.32;;;;;;;2.12;51.21;93793.22;5133292;27;20177;-75
2021/01/14 08:55:43;;;;;;;22.05;9.93;;;;;;;2.09;51.57;93782.56;5131631;27;20238;-76
2021/01/14 08:58:09;;;;;;;25.60;11.83;;;;;;;2.42;51.43;93787.19;5131526;27;20180;-76
2021/01/14 09:00:36;;;;;;;15.77;8.33;;;;;;;2.56;47.28;93764.00;5131637;27;20214;-77
2021/01/14 09:03:02;;;;;;;19.17;10.02;;;;;;;2.55;47.73;93762.44;5131732;27;20219;-74
2021/01/14 09:05:28;;;;;;;20.37;9.90;;;;;;;2.51;49.55;93769.44;5131224;27;20603;-74
2021/01/14 09:08:10;;;;;;;22.33;9.67;;;;;;;2.72;48.33;93745.75;5131823;27;20659;-74
2021/01/14 09:10:43;;;;;;;17.17;8.65;;;;;;;2.81;45.60;93731.41;5131370;27;20188;-74
2021/01/14 09:13:09;;;;;;;24.23;11.88;;;;;;;2.87;47.55;93732.75;5131048;27;20599;-74
2021/01/14 09:15:35;;;;;;;25.00;12.25;;;;;;;3.10;49.10;93746.31;5133212;27;20165;-73
2021/01/14 09:18:00;;;;;;;20.07;11.23;;;;;;;3.19;47.68;93731.16;5132828;27;20551;-75
2021/01/14 09:20:26;;;;;;;20.33;11.57;;;;;;;3.35;48.06;93730.56;5113900;27;20269;-73
2021/01/14 09:22:52;;;;;;;22.60;11.17;;;;;;;3.54;46.49;93724.78;5132738;27;20702;-74
2021/01/14 09:25:31;;;;;;;15.90;8.75;;;;;;;3.45;45.88;93717.72;5114661;27;20180;-77
2021/01/14 09:27:57;;;;;;;28.48;10.32;;;;;;;3.31;46.73;93698.00;5130965;27;20185;-75
2021/01/14 09:30:23;;;;;;;18.30;9.37;;;;;;;3.48;47.02;93721.56;5131739;27;20267;-75
2021/01/14 09:33:09;;;;;;;24.53;9.83;;;;;;;3.46;47.67;93721.13;5131461;27;20220;-73
2021/01/14 09:35:34;;;;;;;15.73;8.38;;;;;;;3.47;45.19;93690.22;5132459;27;20607;-73
2021/01/14 09:38:00;;;;;;;15.40;8.33;;;;;;;3.61;46.25;93701.25;5132402;27;20247;-75
2021/01/14 09:40:25;;;;;;;16.53;7.37;;;;;;;3.91;42.98;93701.78;5132599;27;20228;-73
2021/01/14 09:42:51;;;;;;;11.50;7.13;;;;;;;3.95;43.07;93700.03;5132772;27;20169;-75
2021/01/14 09:45:17;;;;;;;15.07;7.10;;;;;;;3.85;43.78;93679.34;5132414;27;20243;-74
2021/01/14 09:47:49;;;;;;;14.23;7.47;;;;;;;3.92;43.79;93679.53;5143469;27;20173;-73
2021/01/14 09:50:15;;;;;;;14.02;8.18;;;;;;;3.98;43.15;93663.16;5132307;27;20177;-73
2021/01/14 09:52:41;;;;;;;13.18;6.53;;;;;;;3.96;42.31;93668.00;5148258;27;20253;-73
2021/01/14 09:55:07;;;;;;;12.17;6.97;;;;;;;3.62;43.07;93655.25;5132252;27;20214;-76
2021/01/14 09:57:34;;;;;;;12.27;6.57;;;;;;;3.77;42.17;93645.91;5131207;27;20172;-75
2021/01/14 10:00:00;;;;;;;15.55;6.93;;;;;;;3.66;42.94;93653.50;5127375;27;20481;-75
2021/01/14 10:02:26;;;;;;;16.60;7.77;;;;;;;3.81;43.23;93652.81;5131170;27;20173;-74
2021/01/14 10:04:55;;;;;;;12.73;7.32;;;;;;;3.87;43.60;93646.22;5131088;27;20173;-75
2021/01/14 10:07:20;;;;;;;16.45;7.63;;;;;;;3.87;45.32;93653.34;5131247;27;20177;-75
2021/01/14 10:09:48;;;;;;;14.87;7.70;;;;;;;3.67;44.45;93652.41;5132101;27;20252;-74
2021/01/14 10:12:14;;;;;;;12.88;6.90;;;;;;;3.40;44.33;93651.94;5147961;27;20181;-75
2021/01/14 10:14:41;;;;;;;27.77;7.57;;;;;;;3.43;43.77;93645.25;5132334;28;20226;-75
2021/01/14 10:17:14;;;;;;;15.23;7.72;;;;;;;3.30;45.15;93648.97;5132139;28;20673;-74
2021/01/14 10:19:45;;;;;;;13.25;6.97;;;;;;;3.30;45.18;93644.47;5148443;27;20177;-75
2021/01/14 10:22:11;;;;;;;14.88;7.35;;;;;;;3.41;44.40;93645.56;5132315;28;20200;-75
2021/01/14 10:24:36;;;;;;;10.50;6.43;;;;;;;3.57;44.23;93653.59;5148380;27;20633;-75
2021/01/14 10:27:17;;;;;;;19.23;7.67;;;;;;;3.61;45.63;93657.13;5135437;27;20176;-74
2021/01/14 10:29:43;;;;;;;16.00;7.97;;;;;;;3.51;45.72;93654.94;5136415;27;20172;-74
2021/01/14 10:32:17;;;;;;;21.20;9.67;;;;;;;3.36;45.10;93651.06;5136371;27;20180;-75
2021/01/14 10:34:46;;;;;;;19.27;8.80;;;;;;;3.29;46.86;93642.94;5135048;27;20426;-74
2021/01/14 10:37:30;;;;;;;21.17;9.07;;;;;;;3.01;48.07;93650.69;5135018;27;20236;-74
2021/01/14 10:39:57;;;;;;;16.00;9.57;;;;;;;3.13;47.16;93644.66;5134578;27;20542;-75
2021/01/14 10:42:34;;;;;;;25.17;10.82;;;;;;;2.93;46.58;93633.13;5151969;27;20184;-74
2021/01/14 10:45:01;;;;;;;18.30;10.07;;;;;;;2.91;48.36;93635.28;5135836;27;20176;-74
2021/01/14 10:47:27;;;;;;;19.92;10.50;;;;;;;3.05;47.46;93627.09;5136093;27;20651;-74
2021/01/14 10:49:52;;;;;;;21.67;10.10;;;;;;;3.21;47.86;93633.25;5134556;27;20185;-75
2021/01/14 10:52:18;;;;;;;20.33;10.70;;;;;;;3.16;47.23;93617.66;5135974;27;20176;-74
2021/01/14 10:55:00;;;;;;;22.90;10.93;;;;;;;3.11;47.86;93613.34;5135841;27;20626;-74
2021/01/14 10:57:54;;;;;;;28.08;12.07;;;;;;;3.21;46.43;93619.31;5134490;27;20688;-75
2021/01/14 11:00:21;;;;;;;32.13;11.00;;;;;;;2.73;47.36;93615.47;5134274;27;20229;-75
2021/01/14 11:02:46;;;;;;;20.13;10.98;;;;;;;2.77;47.93;93638.22;5134443;27;20605;-75
2021/01/14 11:05:13;;;;;;;21.37;11.97;;;;;;;2.71;47.97;93639.53;5135337;27;20181;-75
2021/01/14 11:07:38;;;;;;;22.63;9.98;;;;;;;2.77;47.92;93643.50;5135634;27;20637;-74
2021/01/14 11:10:08;;;;;;;15.73;9.20;;;;;;;3.07;47.09;93640.72;5151616;27;20188;-74
2021/01/14 11:12:34;;;;;;;25.92;10.80;;;;;;;3.16;47.67;93644.03;5135654;27;20211;-76
2021/01/14 11:14:59;;;;;;;25.40;12.07;;;;;;;3.25;47.34;93647.31;5135297;27;20173;-74
2021/01/14 11:17:25;;;;;;;20.10;10.67;;;;;;;3.16;47.60;93646.66;5135472;27;20184;-76
2021/01/14 11:19:51;;;;;;;20.43;10.97;;;;;;;3.34;46.91;93640.06;5135626;27;20553;-75
2021/01/14 11:22:16;;;;;;;25.07;11.13;;;;;;;3.33;46.09;93632.50;5134894;27;20207;-77
2021/01/14 11:24:42;;;;;;;29.33;11.47;;;;;;;3.36;46.74;93621.28;5135341;27;20173;-73
2021/01/14 11:27:07;;;;;;;25.13;10.73;;;;;;;3.39;47.15;93620.63;5116492;27;20217;-75
2021/01/14 11:29:33;;;;;;;19.30;9.67;;;;;;;3.34;46.80;93615.56;5133753;27;20260;-74
2021/01/14 11:32:00;;;;;;;22.10;9.67;;;;;;;3.46;45.92;93615.56;5134898;27;20177;-76
2021/01/14 11:34:26;;;;;;;23.95;11.20;;;;;;;3.44;45.61;93621.19;5135268;27;20226;-76
2021/01/14 11:36:51;;;;;;;27.77;11.23;;;;;;;3.44;45.57;93600.06;5134543;27;20213;-76
2021/01/14 11:39:17;;;;;;;24.27;10.73;;;;;;;3.44;45.07;93592.16;5132656;27;20173;-75
2021/01/14 11:41:42;;;;;;;20.33;9.70;;;;;;;3.45;44.59;93590.28;5134813;27;20209;-75
2021/01/14 11:44:08;;;;;;;21.93;10.20;;;;;;;3.08;46.40;93597.41;5135107;27;20169;-75